Time;durP1;ratioP1;P1;durP2;ratioP2;P2;SDS_P1;SDS_P2;PMS_P1;PMS_P2;Temp;Humidity;BMP_temperature;BMP_pressure;BME280_temperature;BME280_humidity;BME280_pressure;Samples;Min_cycle;Max_cycle;Signal;HPM_P1;HPM_P2
2022/07/12 00:00:57;;;;;;;3.10;2.90;;;16.90;99.90;;;;;;5106318;28;20344;-52
2022/07/12 00:03:25;;;;;;;3.72;2.80;;;16.90;99.90;;;;;;5099897;28;20287;-53
2022/07/12 00:05:55;;;;;;;4.20;2.88;;;16.90;99.90;;;;;;5109981;28;20211;-52
2022/07/12 00:08:23;;;;;;;2.92;2.72;;;16.80;99.90;;;;;;5110148;28;20241;-53
2022/07/12 00:10:51;;;;;;;3.78;2.95;;;16.80;99.90;;;;;;5109335;28;20206;-52
2022/07/12 00:13:19;;;;;;;3.30;3.00;;;16.80;99.90;;;;;;5110298;28;20223;-52
2022/07/12 00:15:49;;;;;;;3.22;2.92;;;16.80;99.90;;;;;;5109987;28;20290;-53
2022/07/12 00:18:17;;;;;;;3.53;3.03;;;16.70;99.90;;;;;;5107803;28;20254;-53
2022/07/12 00:20:46;;;;;;;2.90;2.70;;;16.70;99.90;;;;;;5097793;28;20218;-52
2022/07/12 00:23:14;;;;;;;3.42;3.05;;;16.70;99.90;;;;;;5108716;28;20953;-53
2022/07/12 00:25:42;;;;;;;4.50;2.78;;;16.60;99.90;;;;;;5113776;28;20207;-52
2022/07/12 00:28:10;;;;;;;4.22;2.92;;;16.60;99.90;;;;;;5113867;28;20253;-53
2022/07/12 00:30:38;;;;;;;3.03;2.83;;;16.60;99.90;;;;;;5112938;28;20211;-52
2022/07/12 00:33:08;;;;;;;2.80;2.60;;;16.60;99.90;;;;;;5113481;28;20789;-52
2022/07/12 00:35:36;;;;;;;2.75;2.55;;;16.50;99.90;;;;;;5113138;28;20204;-52
2022/07/12 00:38:04;;;;;;;2.80;2.60;;;16.50;99.90;;;;;;5085411;28;20845;-53
2022/07/12 00:40:32;;;;;;;3.20;3.00;;;16.40;99.90;;;;;;5113589;28;20223;-51
2022/07/12 00:43:00;;;;;;;4.43;2.67;;;16.40;99.90;;;;;;5113274;28;20261;-52
2022/07/12 00:45:28;;;;;;;3.60;3.30;;;16.30;99.90;;;;;;5113776;28;20208;-53
2022/07/12 00:47:57;;;;;;;3.85;3.38;;;16.30;99.90;;;;;;5112960;28;20195;-52
2022/07/12 00:50:26;;;;;;;3.00;2.80;;;16.20;99.90;;;;;;5112950;28;20203;-53
2022/07/12 00:52:55;;;;;;;3.60;3.30;;;16.10;99.90;;;;;;5100337;28;20285;-52
2022/07/12 00:55:24;;;;;;;3.00;2.80;;;16.00;99.90;;;;;;5107670;28;20258;-52
2022/07/12 00:57:53;;;;;;;4.72;3.08;;;15.90;99.90;;;;;;5113594;28;20314;-53
2022/07/12 01:00:24;;;;;;;3.17;2.95;;;15.80;99.90;;;;;;5112794;28;20207;-52
2022/07/12 01:02:53;;;;;;;3.53;3.22;;;15.80;99.90;;;;;;5099161;28;20219;-52
2022/07/12 01:05:21;;;;;;;3.50;3.20;;;15.70;99.90;;;;;;5113167;28;20222;-52
2022/07/12 01:07:51;;;;;;;3.35;3.05;;;15.60;99.90;;;;;;5113115;28;20207;-52
2022/07/12 01:10:20;;;;;;;3.08;2.80;;;15.60;99.90;;;;;;5111813;28;20625;-52
2022/07/12 01:12:48;;;;;;;4.57;3.17;;;15.50;99.90;;;;;;5112883;28;20227;-53
2022/07/12 01:15:17;;;;;;;4.25;3.10;;;15.50;99.90;;;;;;5113462;28;20291;-53
2022/07/12 01:17:46;;;;;;;3.30;3.00;;;15.40;99.90;;;;;;5112665;28;20227;-52
2022/07/12 01:20:20;;;;;;;3.53;3.20;;;15.40;99.90;;;;;;5104535;28;20207;-52
2022/07/12 01:22:54;;;;;;;3.17;2.97;;;15.30;99.90;;;;;;5107938;28;20223;-52
2022/07/12 01:25:23;;;;;;;3.85;3.35;;;15.30;99.90;;;;;;5112663;28;20218;-52
2022/07/12 01:27:52;;;;;;;4.18;3.22;;;15.30;99.90;;;;;;5112045;28;20256;-53
2022/07/12 01:30:20;;;;;;;3.13;2.92;;;15.20;99.90;;;;;;5112559;28;20696;-53
2022/07/12 01:32:49;;;;;;;3.13;2.83;;;15.10;99.90;;;;;;5111213;28;20260;-53
2022/07/12 01:35:18;;;;;;;3.73;3.37;;;15.10;99.90;;;;;;5111986;28;20211;-53
2022/07/12 01:37:47;;;;;;;3.97;3.30;;;15.10;99.90;;;;;;5117391;28;20231;-52
2022/07/12 01:40:17;;;;;;;3.40;3.10;;;15.00;99.90;;;;;;5118667;28;20225;-52
2022/07/12 01:42:45;;;;;;;3.80;2.90;;;14.90;99.90;;;;;;5117334;28;20227;-52
2022/07/12 01:45:13;;;;;;;3.13;2.90;;;14.90;99.90;;;;;;5112521;28;20741;-53
2022/07/12 01:47:41;;;;;;;3.33;3.03;;;14.90;99.90;;;;;;5111775;28;20245;-52
2022/07/12 01:50:11;;;;;;;3.60;3.30;;;14.80;99.90;;;;;;5111718;28;20669;-53
2022/07/12 01:52:41;;;;;;;5.43;3.30;;;14.80;99.90;;;;;;5097672;28;20204;-52
2022/07/12 01:55:10;;;;;;;3.37;3.17;;;14.80;99.90;;;;;;5112044;28;20223;-53
2022/07/12 01:57:42;;;;;;;3.90;3.60;;;14.80;99.90;;;;;;5111597;28;20216;-52
2022/07/12 02:00:11;;;;;;;4.20;3.17;;;14.70;99.90;;;;;;5112160;28;20208;-53
2022/07/12 02:02:40;;;;;;;3.60;3.20;;;14.70;99.90;;;;;;5096268;28;20585;-53
2022/07/12 02:05:09;;;;;;;3.13;2.93;;;14.70;99.90;;;;;;5075762;28;20212;-53
2022/07/12 02:07:37;;;;;;;3.90;3.40;;;14.70;99.90;;;;;;5074660;28;20205;-52
2022/07/12 02:10:07;;;;;;;3.50;3.20;;;14.60;99.90;;;;;;5078643;28;20234;-53
2022/07/12 02:12:36;;;;;;;4.73;3.40;;;14.50;99.90;;;;;;5083487;28;20221;-53
2022/07/12 02:15:08;;;;;;;3.80;3.30;;;14.50;99.90;;;;;;5084758;28;20243;-53
2022/07/12 02:17:36;;;;;;;3.67;3.37;;;14.50;99.90;;;;;;5077736;28;20220;-53
2022/07/12 02:20:06;;;;;;;4.40;3.67;;;14.40;99.90;;;;;;5091295;28;20325;-52
2022/07/12 02:22:34;;;;;;;3.70;3.20;;;14.40;99.90;;;;;;5076787;28;20273;-53
2022/07/12 02:25:02;;;;;;;3.77;3.30;;;14.30;99.90;;;;;;5091284;28;20550;-52
2022/07/12 02:27:30;;;;;;;3.83;3.30;;;14.20;99.90;;;;;;5090459;28;20669;-53
2022/07/12 02:29:58;;;;;;;3.97;3.57;;;14.20;99.90;;;;;;5091273;28;20204;-53
2022/07/12 02:32:28;;;;;;;5.10;3.70;;;14.20;99.90;;;;;;5090195;28;20333;-53
2022/07/12 02:34:56;;;;;;;4.33;3.97;;;14.20;99.90;;;;;;5090816;28;20655;-53
2022/07/12 02:37:24;;;;;;;3.90;3.60;;;14.10;99.90;;;;;;5091174;28;20628;-52
2022/07/12 02:40:52;;;;;;;5.43;3.97;;;14.10;99.90;;;;;;5090227;28;20767;-52
2022/07/12 02:42:40;;;;;;;4.17;3.37;;;14.00;99.90;;;;;;5084423;28;20246;-52
2022/07/12 02:45:09;;;;;;;4.17;3.77;;;13.90;99.90;;;;;;5090218;28;20215;-52
2022/07/12 02:47:40;;;;;;;4.30;3.90;;;13.90;99.90;;;;;;5088455;28;20205;-52
2022/07/12 02:50:08;;;;;;;4.10;3.70;;;13.90;99.90;;;;;;5089851;28;20676;-53
2022/07/12 02:52:36;;;;;;;5.03;4.30;;;13.80;99.90;;;;;;5089917;28;20208;-52
2022/07/12 02:55:05;;;;;;;4.33;3.97;;;13.80;99.90;;;;;;5090534;28;20277;-52
2022/07/12 02:57:33;;;;;;;4.50;4.10;;;13.90;99.90;;;;;;5100526;28;20200;-52
2022/07/12 03:00:01;;;;;;;4.57;4.10;;;13.90;99.90;;;;;;5110671;28;20292;-52
2022/07/12 03:02:29;;;;;;;5.50;3.90;;;13.90;99.90;;;;;;5102667;28;20218;-52
2022/07/12 03:04:58;;;;;;;4.20;3.90;;;13.80;99.90;;;;;;5110353;28;20664;-52
2022/07/12 03:07:27;;;;;;;4.20;3.90;;;13.80;99.90;;;;;;5110428;28;20260;-52
2022/07/12 03:09:55;;;;;;;3.90;3.60;;;13.80;99.90;;;;;;5109888;28;20256;-52
2022/07/12 03:12:23;;;;;;;4.70;4.10;;;13.70;99.90;;;;;;5100052;28;20261;-53
2022/07/12 03:14:51;;;;;;;4.47;4.10;;;13.70;99.90;;;;;;5101757;28;20211;-52
2022/07/12 03:17:19;;;;;;;6.63;3.70;;;13.60;99.90;;;;;;5109894;28;20207;-53
2022/07/12 03:19:47;;;;;;;3.80;3.43;;;13.60;99.90;;;;;;5106703;28;20212;-52
2022/07/12 03:22:16;;;;;;;3.67;3.33;;;13.60;99.90;;;;;;5106712;28;20691;-52
2022/07/12 03:24:44;;;;;;;3.90;3.60;;;13.60;99.90;;;;;;5109625;28;20227;-52
2022/07/12 03:27:13;;;;;;;4.33;3.67;;;13.60;99.90;;;;;;5110050;28;20203;-52
2022/07/12 03:29:41;;;;;;;4.20;3.90;;;13.60;99.90;;;;;;5110042;28;20207;-52
2022/07/12 03:32:09;;;;;;;4.70;4.30;;;13.50;99.90;;;;;;5110324;28;20211;-52
2022/07/12 03:34:38;;;;;;;4.63;4.27;;;13.50;99.90;;;;;;5096221;28;20235;-52
2022/07/12 03:37:06;;;;;;;4.40;4.00;;;13.50;99.90;;;;;;5110249;28;20622;-52
2022/07/12 03:39:35;;;;;;;5.77;4.27;;;13.50;99.90;;;;;;5106803;28;20223;-52
2022/07/12 03:42:04;;;;;;;6.47;5.13;;;13.50;99.90;;;;;;5101608;28;20207;-51
2022/07/12 03:44:33;;;;;;;4.87;4.47;;;13.40;99.90;;;;;;5109856;28;20288;-52
2022/07/12 03:47:01;;;;;;;4.03;3.73;;;13.40;99.90;;;;;;5109380;28;20207;-52
2022/07/12 03:49:29;;;;;;;4.63;4.23;;;13.40;99.90;;;;;;5109565;28;20200;-52
2022/07/12 03:51:57;;;;;;;4.93;4.43;;;13.40;99.90;;;;;;5105624;28;20207;-52
2022/07/12 03:54:25;;;;;;;5.07;4.63;;;13.40;99.90;;;;;;5109641;28;20231;-53
2022/07/12 03:59:41;;;;;;;7.70;4.70;;;13.40;99.90;;;;;;5109597;28;20704;-52
2022/07/12 04:02:09;;;;;;;6.37;5.13;;;13.40;99.90;;;;;;5104755;28;20203;-53
2022/07/12 04:04:37;;;;;;;5.20;4.77;;;13.40;99.90;;;;;;5109687;28;20288;-52
2022/07/12 04:07:06;;;;;;;5.27;4.77;;;13.50;99.90;;;;;;5109925;28;20268;-52
2022/07/12 04:09:35;;;;;;;5.97;5.47;;;13.60;99.90;;;;;;5109672;28;20257;-51
2022/07/12 04:12:05;;;;;;;4.93;4.37;;;13.60;99.90;;;;;;5099640;28;20261;-52
2022/07/12 04:14:33;;;;;;;5.00;4.60;;;13.60;99.90;;;;;;5080759;28;20228;-52
2022/07/12 04:17:01;;;;;;;6.53;4.83;;;13.70;99.90;;;;;;5092586;28;20864;-52
2022/07/12 04:19:31;;;;;;;5.07;4.60;;;13.90;99.90;;;;;;5100982;28;20223;-52
2022/07/12 04:21:59;;;;;;;6.37;4.27;;;14.90;99.90;;;;;;5109958;28;20199;-52
2022/07/12 04:24:27;;;;;;;3.97;3.58;;;15.90;99.90;;;;;;5109635;28;20269;-53
2022/07/12 04:26:55;;;;;;;4.93;4.53;;;16.50;99.90;;;;;;5109782;28;20208;-53
2022/07/12 04:29:25;;;;;;;4.57;3.92;;;17.10;99.90;;;;;;5109613;28;20200;-53
2022/07/12 04:31:53;;;;;;;3.88;3.58;;;17.50;99.90;;;;;;5109241;28;20207;-53
2022/07/12 04:34:21;;;;;;;4.78;3.38;;;17.80;99.90;;;;;;5109490;28;20258;-53
2022/07/12 04:36:49;;;;;;;3.40;3.10;;;18.00;99.90;;;;;;5109345;28;20298;-53
2022/07/12 04:39:17;;;;;;;3.30;3.00;;;18.30;99.90;;;;;;5090024;28;20281;-52
2022/07/12 04:41:45;;;;;;;3.70;3.03;;;18.60;99.90;;;;;;5088203;28;20216;-52
2022/07/12 04:44:13;;;;;;;3.05;2.85;;;19.10;99.90;;;;;;5108736;28;20652;-52
2022/07/12 04:46:42;;;;;;;4.10;3.28;;;18.80;99.90;;;;;;5109566;28;20233;-52
2022/07/12 04:49:10;;;;;;;3.85;3.53;;;18.00;99.90;;;;;;5108026;28;20698;-52
2022/07/12 04:51:38;;;;;;;3.45;3.15;;;17.70;99.90;;;;;;5109389;28;20242;-52
2022/07/12 04:54:07;;;;;;;3.15;2.95;;;17.10;99.90;;;;;;5108222;28;20761;-52
2022/07/12 04:56:35;;;;;;;4.03;3.13;;;16.90;99.90;;;;;;5108300;28;20241;-52
2022/07/12 04:59:03;;;;;;;3.97;3.58;;;17.00;99.90;;;;;;5108794;28;20211;-52
2022/07/12 05:01:32;;;;;;;3.78;3.47;;;16.90;99.90;;;;;;5100757;28;20208;-51
2022/07/12 05:04:01;;;;;;;3.42;3.13;;;18.10;99.90;;;;;;5101268;28;20249;-52
2022/07/12 05:06:29;;;;;;;3.40;3.17;;;18.30;99.90;;;;;;5092484;28;20204;-53
2022/07/12 05:08:58;;;;;;;2.90;2.67;;;18.00;99.90;;;;;;5088722;28;20633;-52
2022/07/12 05:11:26;;;;;;;3.58;3.10;;;18.80;99.90;;;;;;5079305;28;20216;-52
2022/07/12 05:13:54;;;;;;;2.58;2.40;;;19.70;99.90;;;;;;5077680;28;20777;-52
2022/07/12 05:16:22;;;;;;;2.72;2.53;;;20.60;99.90;;;;;;5066211;28;20278;-53
2022/07/12 05:18:50;;;;;;;2.67;2.20;;;21.10;99.90;;;;;;5085695;28;20298;-53
2022/07/12 05:21:19;;;;;;;2.30;2.10;;;21.60;99.90;;;;;;5079809;28;20232;-52
2022/07/12 05:23:47;;;;;;;2.78;2.45;;;22.10;99.90;;;;;;5077514;28;20229;-53
2022/07/12 05:26:15;;;;;;;2.58;2.20;;;21.80;99.90;;;;;;5076145;28;20209;-52
2022/07/12 05:28:44;;;;;;;2.83;2.60;;;21.70;99.90;;;;;;5082806;28;20218;-52
2022/07/12 05:31:12;;;;;;;2.45;2.35;;;21.20;99.90;;;;;;5087750;28;20197;-53
2022/07/12 05:33:41;;;;;;;2.75;2.22;;;20.70;99.90;;;;;;5086731;28;20283;-53
2022/07/12 05:36:09;;;;;;;2.63;2.38;;;20.30;99.90;;;;;;5084014;28;20200;-53
2022/07/12 05:38:38;;;;;;;3.55;2.45;;;19.80;99.90;;;;;;5088702;28;20250;-52
2022/07/12 05:41:06;;;;;;;3.53;2.88;;;19.60;99.90;;;;;;5087099;28;20228;-52
2022/07/12 05:43:35;;;;;;;4.10;2.95;;;19.30;99.90;;;;;;5077231;28;20595;-52
2022/07/12 05:46:05;;;;;;;4.53;4.10;;;19.10;99.90;;;;;;5076748;28;20570;-52
2022/07/12 05:48:33;;;;;;;3.45;3.15;;;19.00;99.90;;;;;;5080481;28;20244;-53
2022/07/12 05:53:45;;;;;;;3.55;3.30;;;18.80;99.90;;;;;;5080136;28;20233;-51
2022/07/12 05:56:13;;;;;;;5.15;3.20;;;18.70;99.90;;;;;;5085893;28;20253;-52
2022/07/12 05:58:41;;;;;;;4.45;2.88;;;18.70;99.90;;;;;;5086581;28;20665;-52
2022/07/12 06:01:09;;;;;;;3.90;2.83;;;18.90;99.90;;;;;;5090157;28;20216;-52
2022/07/12 06:03:37;;;;;;;3.50;3.17;;;19.00;99.90;;;;;;5089625;28;20223;-52
2022/07/12 06:06:06;;;;;;;3.80;3.42;;;19.00;99.90;;;;;;5092996;28;20231;-52
2022/07/12 06:08:34;;;;;;;4.32;3.58;;;19.00;99.90;;;;;;5084498;28;20205;-53
2022/07/12 06:11:03;;;;;;;4.57;3.70;;;19.00;99.90;;;;;;5083253;28;20281;-53
2022/07/12 06:13:32;;;;;;;4.78;3.95;;;19.00;99.90;;;;;;5088795;28;20708;-53
2022/07/12 06:16:00;;;;;;;6.32;4.80;;;19.10;99.90;;;;;;5088995;28;20196;-53
2022/07/12 06:18:28;;;;;;;6.43;4.97;;;19.20;99.90;;;;;;5089746;28;20270;-53
2022/07/12 06:20:56;;;;;;;5.95;5.32;;;19.20;99.90;;;;;;5088613;28;20261;-53
2022/07/12 06:23:25;;;;;;;5.75;5.25;;;19.10;99.90;;;;;;5089357;28;20643;-52
2022/07/12 06:25:53;;;;;;;6.35;5.75;;;19.10;99.90;;;;;;5089542;28;20250;-54
2022/07/12 06:28:24;;;;;;;6.50;5.50;;;19.10;99.90;;;;;;5089832;28;20212;-51
2022/07/12 06:30:53;;;;;;;5.80;5.30;;;19.20;99.90;;;;;;5089126;28;20200;-53
2022/07/12 06:33:21;;;;;;;5.72;5.13;;;19.30;99.90;;;;;;5087565;28;20227;-52
2022/07/12 06:35:49;;;;;;;6.78;5.07;;;19.40;99.90;;;;;;5087746;28;20630;-53
2022/07/12 06:38:17;;;;;;;5.97;5.18;;;19.50;99.90;;;;;;5088635;28;20220;-53
2022/07/12 06:40:46;;;;;;;6.03;5.38;;;19.70;99.90;;;;;;5089622;28;20281;-51
2022/07/12 06:43:14;;;;;;;6.07;5.03;;;19.90;99.90;;;;;;5090523;28;20224;-53
2022/07/12 06:45:58;;;;;;;6.35;4.82;;;20.20;99.90;;;;;;5081833;28;20200;-52
2022/07/12 06:48:33;;;;;;;7.78;4.70;;;20.40;99.90;;;;;;5081671;28;20204;-53
2022/07/12 06:51:01;;;;;;;5.60;4.22;;;20.70;99.90;;;;;;5085313;28;20204;-53
2022/07/12 06:53:29;;;;;;;5.80;4.10;;;21.70;99.90;;;;;;5084150;28;21741;-53
2022/07/12 06:55:58;;;;;;;3.40;3.10;;;22.20;99.90;;;;;;5087383;28;20216;-53
2022/07/12 06:58:26;;;;;;;3.78;3.00;;;22.40;99.90;;;;;;5087256;28;20204;-52
2022/07/12 07:00:55;;;;;;;3.13;2.90;;;22.60;99.90;;;;;;5082022;28;20239;-53
2022/07/12 07:03:23;;;;;;;2.17;2.00;;;22.50;99.90;;;;;;5087311;28;20285;-53
2022/07/12 07:05:51;;;;;;;3.05;2.83;;;22.50;99.90;;;;;;5086031;28;20249;-54
2022/07/12 07:08:19;;;;;;;5.80;3.40;;;22.30;99.90;;;;;;5088195;28;20208;-53
2022/07/12 07:10:47;;;;;;;4.38;4.00;;;22.00;99.90;;;;;;5085231;28;20216;-53
2022/07/12 07:13:15;;;;;;;6.55;3.55;;;21.70;99.90;;;;;;5072872;28;20235;-53
2022/07/12 07:15:44;;;;;;;3.38;3.08;;;21.60;99.90;;;;;;5074992;28;20213;-52
2022/07/12 07:18:13;;;;;;;3.58;3.20;;;21.50;99.90;;;;;;5078363;28;20216;-53
2022/07/12 07:20:41;;;;;;;4.63;3.40;;;21.50;99.90;;;;;;5078690;28;20216;-53
2022/07/12 07:23:10;;;;;;;3.60;2.90;;;21.50;99.90;;;;;;5074891;28;20217;-53
2022/07/12 07:25:38;;;;;;;4.88;2.92;;;21.50;99.90;;;;;;5078395;28;20219;-52
2022/07/12 07:28:06;;;;;;;2.80;2.30;;;21.40;99.90;;;;;;5073945;28;20205;-53
2022/07/12 07:33:33;;;;;;;1.80;1.70;;;21.20;99.90;;;;;;5014037;28;20347;-52
2022/07/12 07:36:01;;;;;;;1.90;1.80;;;21.30;99.90;;;;;;5061570;28;20266;-53
2022/07/12 07:38:29;;;;;;;2.03;1.70;;;22.60;99.90;;;;;;5084564;28;20596;-53
2022/07/12 07:40:58;;;;;;;2.35;1.60;;;23.60;99.90;;;;;;5088540;28;20220;-53
2022/07/12 07:43:26;;;;;;;2.55;1.73;;;24.30;99.90;;;;;;5087929;28;20744;-54
2022/07/12 07:45:54;;;;;;;2.97;1.77;;;24.70;99.90;;;;;;5088670;28;20844;-53
2022/07/12 07:48:22;;;;;;;1.70;1.60;;;25.00;99.90;;;;;;5089263;28;20285;-53
2022/07/12 07:50:54;;;;;;;1.60;1.50;;;25.20;99.90;;;;;;5086524;28;20192;-53
2022/07/12 07:53:24;;;;;;;1.55;1.42;;;25.30;99.90;;;;;;5080871;28;20237;-53
2022/07/12 07:55:53;;;;;;;1.50;1.40;;;25.50;99.90;;;;;;5078415;28;20697;-53
2022/07/12 07:58:21;;;;;;;2.38;1.30;;;25.60;99.90;;;;;;5072727;28;20204;-53
2022/07/12 08:00:51;;;;;;;2.08;1.80;;;25.80;99.90;;;;;;5087441;28;20216;-53
2022/07/12 08:03:20;;;;;;;2.03;1.60;;;26.10;99.90;;;;;;5085414;28;20224;-52
2022/07/12 08:05:50;;;;;;;1.83;1.73;;;25.70;99.90;;;;;;5088315;28;20261;-52
2022/07/12 08:08:20;;;;;;;1.48;1.38;;;25.50;99.90;;;;;;5086635;28;20216;-52
2022/07/12 08:10:50;;;;;;;1.33;1.25;;;25.60;99.90;;;;;;5082201;28;20196;-53
2022/07/12 08:13:18;;;;;;;1.00;1.00;;;25.50;99.90;;;;;;5078075;28;20228;-52
2022/07/12 08:15:46;;;;;;;1.52;1.40;;;25.30;99.90;;;;;;5086628;28;20261;-53
2022/07/12 08:18:15;;;;;;;2.58;1.30;;;25.10;99.90;;;;;;5082334;28;20243;-52
2022/07/12 08:20:43;;;;;;;1.50;1.40;;;24.90;99.90;;;;;;5086230;28;20253;-52
2022/07/12 08:23:14;;;;;;;2.80;1.38;;;24.90;99.90;;;;;;5084816;28;20254;-52
2022/07/12 08:25:44;;;;;;;1.52;1.15;;;24.90;99.90;;;;;;5085877;28;20200;-53
2022/07/12 08:28:12;;;;;;;7.93;2.35;;;25.10;99.90;;;;;;5086481;28;20200;-52
2022/07/12 08:30:40;;;;;;;4.85;1.80;;;25.20;99.90;;;;;;5087056;28;20215;-52
2022/07/12 08:33:15;;;;;;;1.35;1.20;;;25.20;99.90;;;;;;5087222;28;20239;-52
2022/07/12 08:35:43;;;;;;;1.60;1.50;;;24.90;99.90;;;;;;5088612;28;20207;-52
2022/07/12 08:38:13;;;;;;;2.13;1.23;;;24.80;99.90;;;;;;5088567;28;20649;-52
2022/07/12 08:40:42;;;;;;;1.50;1.40;;;24.60;99.90;;;;;;5084730;28;20319;-53
2022/07/12 08:43:11;;;;;;;1.50;1.40;;;24.50;99.90;;;;;;5087372;28;20728;-52
2022/07/12 08:45:40;;;;;;;2.20;1.70;;;24.30;99.90;;;;;;5090644;28;20234;-51
2022/07/12 08:48:08;;;;;;;1.70;1.60;;;24.40;99.90;;;;;;5091641;28;20204;-52
2022/07/12 08:50:37;;;;;;;1.67;1.58;;;24.30;99.90;;;;;;5091402;28;20610;-52
2022/07/12 08:53:13;;;;;;;1.85;1.20;;;24.20;99.90;;;;;;5091230;28;20310;-53
2022/07/12 08:55:41;;;;;;;1.40;1.30;;;23.80;99.90;;;;;;5091827;28;20204;-52
2022/07/12 08:58:18;;;;;;;1.38;1.27;;;23.70;99.90;;;;;;5091947;28;20295;-52
2022/07/12 09:00:47;;;;;;;1.95;1.73;;;24.00;99.90;;;;;;5087887;28;20211;-53
2022/07/12 09:03:18;;;;;;;1.30;1.20;;;24.20;99.90;;;;;;5091203;28;20231;-53
2022/07/12 09:05:51;;;;;;;1.38;1.27;;;24.40;99.90;;;;;;5091462;28;20601;-53
2022/07/12 09:08:25;;;;;;;1.95;1.70;;;24.30;99.90;;;;;;5088736;28;20212;-52
2022/07/12 09:10:56;;;;;;;1.30;1.30;;;24.20;99.90;;;;;;5089393;28;20620;-53
2022/07/12 09:13:51;;;;;;;1.75;1.50;;;24.40;99.90;;;;;;5087577;28;20228;-53
2022/07/12 09:16:20;;;;;;;2.22;1.40;;;24.40;99.90;;;;;;5080136;28;20204;-52
2022/07/12 09:18:49;;;;;;;1.40;1.30;;;24.40;99.90;;;;;;5091044;28;20594;-53
2022/07/12 09:21:25;;;;;;;1.73;1.45;;;24.50;99.90;;;;;;5090868;28;20216;-52
2022/07/12 09:23:55;;;;;;;1.40;1.40;;;24.40;99.90;;;;;;5089707;28;20289;-53
2022/07/12 09:26:24;;;;;;;1.20;1.20;;;24.50;99.90;;;;;;5091050;28;20204;-52
2022/07/12 09:28:53;;;;;;;2.05;1.60;;;24.60;99.90;;;;;;5090859;28;20204;-52
2022/07/12 09:31:22;;;;;;;1.50;1.40;;;24.70;99.90;;;;;;5090894;28;20259;-52
2022/07/12 09:36:58;;;;;;;1.70;1.60;;;24.80;99.90;;;;;;5110100;28;20207;-53
2022/07/12 09:39:26;;;;;;;2.15;1.70;;;24.90;99.90;;;;;;5111463;28;20256;-52
2022/07/12 09:41:56;;;;;;;1.83;1.70;;;25.00;99.90;;;;;;5111697;28;21039;-52
2022/07/12 09:44:28;;;;;;;1.67;1.58;;;25.00;99.90;;;;;;5111753;28;20611;-53
2022/07/12 09:47:00;;;;;;;1.70;1.60;;;24.80;99.90;;;;;;5111296;28;20248;-52
2022/07/12 09:49:28;;;;;;;2.15;1.42;;;24.80;99.90;;;;;;5111976;28;20239;-52
2022/07/12 09:51:58;;;;;;;2.45;1.70;;;24.80;99.90;;;;;;5097737;28;20647;-53
2022/07/12 09:54:29;;;;;;;1.98;1.60;;;24.80;99.90;;;;;;5082303;28;21014;-53
2022/07/12 09:57:03;;;;;;;2.42;1.60;;;24.80;99.90;;;;;;5104753;28;20214;-53
2022/07/12 09:59:37;;;;;;;1.63;1.52;;;24.60;99.90;;;;;;5111530;28;20207;-52
2022/07/12 10:02:06;;;;;;;2.05;1.40;;;24.50;99.90;;;;;;5098944;28;20246;-52
2022/07/12 10:04:35;;;;;;;3.17;1.52;;;24.50;99.90;;;;;;5095766;28;20239;-52
2022/07/12 10:07:05;;;;;;;1.77;1.38;;;24.60;99.90;;;;;;5111322;28;20200;-52
2022/07/12 10:09:34;;;;;;;1.80;1.70;;;24.60;99.90;;;;;;5110607;28;20200;-53
2022/07/12 10:12:02;;;;;;;1.27;1.20;;;24.80;99.90;;;;;;5102099;28;20208;-52
2022/07/12 10:14:39;;;;;;;1.20;1.15;;;24.80;99.90;;;;;;5091144;28;20760;-51
2022/07/12 10:17:09;;;;;;;1.65;1.15;;;24.80;99.90;;;;;;5090278;28;20222;-52
2022/07/12 10:19:38;;;;;;;1.15;1.05;;;24.90;99.90;;;;;;5090465;28;20740;-53
2022/07/12 10:22:19;;;;;;;2.42;1.50;;;25.00;99.90;;;;;;5090563;28;20269;-53
2022/07/12 10:24:55;;;;;;;2.20;1.27;;;24.90;99.90;;;;;;5090283;28;20235;-53
2022/07/12 10:27:35;;;;;;;3.00;1.20;;;25.00;99.90;;;;;;5090812;28;20210;-53
2022/07/12 10:30:22;;;;;;;2.60;1.10;;;25.10;99.90;;;;;;5090266;28;20685;-53
2022/07/12 10:32:53;;;;;;;1.65;1.00;;;25.00;99.90;;;;;;5077794;28;20959;-53
2022/07/12 10:35:22;;;;;;;1.73;1.20;;;25.00;99.90;;;;;;5090774;28;20208;-53
2022/07/12 10:38:19;;;;;;;1.42;1.27;;;25.20;99.90;;;;;;5090519;28;20629;-53
2022/07/12 10:40:49;;;;;;;2.55;1.10;;;25.20;99.90;;;;;;5089721;28;20212;-52
2022/07/12 10:46:22;;;;;;;2.42;1.30;;;25.00;99.90;;;;;;5087251;28;20265;-52
2022/07/12 10:49:07;;;;;;;1.23;1.13;;;25.00;99.90;;;;;;5090031;28;20217;-53
2022/07/12 10:51:35;;;;;;;1.45;1.02;;;25.20;99.90;;;;;;5090279;28;20818;-52
2022/07/12 10:54:22;;;;;;;1.00;1.00;;;25.30;99.90;;;;;;5089605;28;20285;-53
2022/07/12 10:56:57;;;;;;;2.47;1.10;;;25.30;99.90;;;;;;5080013;28;20629;-53
2022/07/12 10:59:27;;;;;;;0.95;0.90;;;25.30;99.90;;;;;;5089171;28;20212;-52
2022/07/12 11:01:57;;;;;;;3.22;1.13;;;25.30;99.90;;;;;;5084150;28;20753;-54
2022/07/12 11:04:33;;;;;;;1.10;0.90;;;25.30;99.90;;;;;;5081220;28;20303;-52
2022/07/12 11:07:02;;;;;;;2.28;1.10;;;25.50;99.90;;;;;;5088942;28;20205;-53
2022/07/12 11:09:31;;;;;;;1.75;0.93;;;25.40;99.90;;;;;;5089230;28;20615;-51
2022/07/12 11:11:59;;;;;;;1.15;0.70;;;25.40;99.90;;;;;;5084477;28;20208;-52
2022/07/12 11:14:32;;;;;;;1.58;0.80;;;25.40;99.90;;;;;;5080122;28;20274;-53
2022/07/12 11:17:01;;;;;;;0.88;0.80;;;25.40;99.90;;;;;;5089336;28;20208;-52
2022/07/12 11:19:31;;;;;;;0.90;0.90;;;25.60;99.90;;;;;;5088503;28;20220;-53
2022/07/12 11:21:59;;;;;;;1.25;0.95;;;25.70;99.90;;;;;;5083871;28;20689;-53
2022/07/12 11:24:29;;;;;;;1.45;0.90;;;25.70;99.90;;;;;;5090020;28;20281;-53
2022/07/12 11:26:59;;;;;;;1.48;0.90;;;25.70;99.90;;;;;;5088946;28;20204;-53
2022/07/12 11:29:28;;;;;;;1.52;0.80;;;25.70;99.90;;;;;;5088868;28;20208;-53
2022/07/12 11:32:05;;;;;;;1.20;0.90;;;25.80;99.90;;;;;;5088934;28;20200;-52
2022/07/12 11:34:38;;;;;;;3.00;1.33;;;25.90;99.90;;;;;;5088603;28;20653;-53
2022/07/12 11:37:07;;;;;;;2.00;1.25;;;26.10;99.90;;;;;;5089153;28;20208;-53
2022/07/12 11:39:36;;;;;;;2.00;1.80;;;26.10;99.90;;;;;;5088627;28;20210;-53
2022/07/12 11:42:05;;;;;;;0.68;0.68;;;26.00;99.90;;;;;;5088756;28;20220;-53
2022/07/12 11:44:46;;;;;;;2.03;1.05;;;25.90;99.90;;;;;;5088565;28;20228;-53
2022/07/12 11:47:17;;;;;;;0.70;0.70;;;25.90;99.90;;;;;;5089192;28;20697;-53
2022/07/12 11:49:46;;;;;;;1.52;0.68;;;26.00;99.90;;;;;;5088587;28;20226;-54
2022/07/12 11:52:14;;;;;;;1.25;0.80;;;26.20;99.90;;;;;;5088719;28;20204;-54
2022/07/12 11:54:43;;;;;;;0.68;0.68;;;26.30;99.90;;;;;;5074540;28;20276;-54
2022/07/12 11:57:12;;;;;;;1.33;0.50;;;26.30;99.90;;;;;;5088245;28;20700;-54
2022/07/12 11:59:40;;;;;;;1.75;0.70;;;26.40;99.90;;;;;;5088552;28;20657;-53
2022/07/12 12:02:10;;;;;;;0.80;0.80;;;26.40;99.90;;;;;;5088879;28;20715;-54
2022/07/12 12:04:48;;;;;;;1.13;0.75;;;26.50;99.90;;;;;;5087315;28;20227;-54
2022/07/12 12:07:17;;;;;;;1.15;0.60;;;26.40;99.90;;;;;;5088788;28;20317;-52
2022/07/12 12:10:03;;;;;;;1.33;0.60;;;26.40;99.90;;;;;;5088449;28;20204;-53
2022/07/12 12:12:43;;;;;;;1.45;0.77;;;26.40;99.90;;;;;;5079214;28;20208;-53
2022/07/12 12:15:12;;;;;;;2.92;0.70;;;26.30;99.90;;;;;;5097254;28;20210;-53
2022/07/12 12:17:46;;;;;;;1.83;0.73;;;26.30;99.90;;;;;;5107724;28;20648;-53
2022/07/12 12:20:18;;;;;;;1.23;0.60;;;26.20;99.20;;;;;;5111070;28;20207;-53
2022/07/12 12:22:48;;;;;;;1.48;0.70;;;26.20;99.90;;;;;;5100725;28;20207;-53
2022/07/12 12:25:17;;;;;;;0.65;0.60;;;26.40;99.70;;;;;;5112813;28;20200;-54
2022/07/12 12:27:46;;;;;;;0.60;0.60;;;26.40;99.90;;;;;;5112886;28;20207;-53
2022/07/12 12:30:48;;;;;;;0.47;0.47;;;26.40;98.20;;;;;;5100566;28;20247;-53
2022/07/12 12:33:34;;;;;;;0.60;0.60;;;26.40;97.80;;;;;;5102888;28;20258;-53
2022/07/12 12:36:17;;;;;;;0.90;0.70;;;26.40;98.20;;;;;;5108152;28;20257;-54
2022/07/12 12:38:46;;;;;;;0.57;0.57;;;26.30;98.80;;;;;;5105300;28;20199;-53
2022/07/12 12:41:16;;;;;;;0.65;0.65;;;26.30;98.70;;;;;;5104971;28;20291;-53
2022/07/12 12:43:44;;;;;;;1.90;0.70;;;26.40;99.90;;;;;;5090751;28;20401;-52
2022/07/12 12:46:17;;;;;;;0.70;0.68;;;26.50;98.00;;;;;;5098497;28;20274;-53
2022/07/12 12:48:49;;;;;;;0.52;0.52;;;26.50;98.30;;;;;;5108197;28;20652;-53
2022/07/12 12:51:18;;;;;;;0.60;0.60;;;26.50;99.40;;;;;;5106493;28;20211;-51
2022/07/12 12:53:56;;;;;;;0.60;0.60;;;26.50;97.70;;;;;;5098935;28;20220;-55
2022/07/12 12:56:24;;;;;;;0.60;0.60;;;26.60;99.90;;;;;;5088595;28;20210;-54
2022/07/12 12:58:53;;;;;;;1.48;0.50;;;26.60;98.10;;;;;;5101344;28;20208;-54
2022/07/12 13:01:22;;;;;;;1.58;0.60;;;26.70;99.70;;;;;;5106826;28;20253;-53
2022/07/12 13:03:50;;;;;;;0.70;0.70;;;26.90;99.20;;;;;;5104182;28;20223;-53
2022/07/12 13:06:21;;;;;;;1.02;0.77;;;26.90;98.50;;;;;;5093898;28;20265;-53
2022/07/12 13:08:49;;;;;;;0.45;0.40;;;27.00;97.70;;;;;;5090713;28;20226;-53
2022/07/12 13:11:22;;;;;;;1.13;0.70;;;27.00;98.10;;;;;;5091720;28;20208;-53
2022/07/12 13:13:50;;;;;;;0.88;0.73;;;27.00;97.90;;;;;;5077162;28;20261;-54
2022/07/12 13:16:18;;;;;;;0.75;0.57;;;27.00;96.20;;;;;;5091988;28;20208;-53